createdAt,value
2019-01-31T00:04:11.986Z,30.43
2019-01-31T00:10:45.615Z,27.80
2019-01-31T00:17:12.683Z,29.50
2019-01-31T00:24:05.458Z,28.07
2019-01-31T00:30:49.700Z,27.17
2019-01-31T00:37:10.555Z,26.30
2019-01-31T00:43:43.887Z,26.87
2019-01-31T00:49:57.682Z,25.95
2019-01-31T00:56:57.106Z,27.93
2019-01-31T01:03:24.860Z,27.52
2019-01-31T01:09:45.623Z,28.12
2019-01-31T01:16:17.707Z,27.15
2019-01-31T01:23:01.607Z,27.80
2019-01-31T01:29:49.451Z,27.27
2019-01-31T01:36:02.338Z,28.98
2019-01-31T01:42:51.072Z,28.40
2019-01-31T01:49:23.558Z,31.20
2019-01-31T01:55:52.067Z,29.90
2019-01-31T02:02:40.354Z,29.70
2019-01-31T02:09:30.229Z,32.98
2019-01-31T02:15:52.501Z,28.77
2019-01-31T02:22:44.371Z,30.62
2019-01-31T02:29:34.215Z,29.32
2019-01-31T02:36:11.807Z,29.90
2019-01-31T02:42:58.273Z,30.62
2019-01-31T02:49:30.026Z,28.67
2019-01-31T02:56:18.446Z,30.60
2019-01-31T03:02:34.297Z,27.95
2019-01-31T03:08:56.364Z,27.58
2019-01-31T03:15:16.207Z,30.92
2019-01-31T03:21:49.155Z,29.90
2019-01-31T03:28:47.674Z,30.90
2019-01-31T03:35:33.786Z,30.68
2019-01-31T03:42:17.822Z,31.33
2019-01-31T03:48:53.978Z,31.82
2019-01-31T03:55:28.506Z,28.62
2019-01-31T04:02:07.049Z,27.20
2019-01-31T04:08:11.340Z,31.35
2019-01-31T04:14:13.467Z,28.30
2019-01-31T04:20:17.166Z,28.47
2019-01-31T04:26:20.066Z,27.77
2019-01-31T04:32:22.173Z,30.80
2019-01-31T04:38:24.539Z,28.67
2019-01-31T04:44:26.751Z,29.60
2019-01-31T04:50:30.016Z,29.75
2019-01-31T04:56:32.238Z,34.98
2019-01-31T05:02:34.510Z,39.95
2019-01-31T05:08:36.620Z,33.67
2019-01-31T05:14:38.894Z,33.83
2019-01-31T05:20:42.170Z,30.65
2019-01-31T05:26:45.798Z,27.95
2019-01-31T05:32:49.170Z,30.05
2019-01-31T05:38:51.716Z,29.55
2019-01-31T05:44:53.936Z,33.98
2019-01-31T05:50:57.258Z,32.33
2019-01-31T05:56:59.748Z,31.33
2019-01-31T06:03:04.086Z,32.98
2019-01-31T06:09:07.244Z,35.25
2019-01-31T06:15:11.994Z,35.90
2019-01-31T06:21:14.208Z,37.03
2019-01-31T06:27:18.130Z,34.88
2019-01-31T06:33:20.924Z,39.00
2019-01-31T06:39:23.090Z,36.23
2019-01-31T06:45:25.400Z,39.65
2019-01-31T06:51:27.609Z,40.63
2019-01-31T06:57:30.038Z,42.43
2019-01-31T07:03:32.802Z,46.58
2019-01-31T07:09:36.530Z,49.80
2019-01-31T07:15:39.963Z,51.92
2019-01-31T07:21:42.438Z,50.65
2019-01-31T07:27:46.914Z,50.10
2019-01-31T07:33:49.266Z,48.20
2019-01-31T07:39:51.524Z,55.80
2019-01-31T07:45:53.703Z,56.08
2019-01-31T07:51:55.908Z,51.42
2019-01-31T07:57:58.402Z,50.08
2019-01-31T08:04:02.464Z,54.65
2019-01-31T08:10:08.180Z,50.17
2019-01-31T08:16:10.725Z,52.03
2019-01-31T08:22:12.890Z,49.20
2019-01-31T08:28:16.671Z,52.58
2019-01-31T08:34:19.820Z,52.85
2019-01-31T08:40:22.466Z,49.18
2019-01-31T08:46:25.433Z,47.00
2019-01-31T08:52:27.678Z,49.33
2019-01-31T08:58:29.969Z,46.77
2019-01-31T09:04:32.371Z,48.75
2019-01-31T09:10:36.530Z,48.80
2019-01-31T09:16:38.863Z,46.58
2019-01-31T09:22:51.860Z,41.68
2019-01-31T09:29:27.435Z,46.65
2019-01-31T09:35:39.946Z,39.75
2019-01-31T09:42:05.466Z,38.63
2019-01-31T09:48:49.380Z,44.30
2019-01-31T09:55:10.924Z,42.98
2019-01-31T10:02:06.078Z,43.87
2019-01-31T10:08:51.625Z,44.03
2019-01-31T10:15:38.138Z,43.17
2019-01-31T10:22:13.754Z,42.33
2019-01-31T10:28:51.318Z,41.33
2019-01-31T10:35:34.694Z,44.25
2019-01-31T10:41:49.198Z,40.10
2019-01-31T10:48:17.618Z,36.93
2019-01-31T10:54:52.341Z,34.88
2019-01-31T11:01:41.699Z,35.13
2019-01-31T11:08:22.315Z,36.08
2019-01-31T11:14:57.747Z,32.28
2019-01-31T11:21:35.747Z,27.77
2019-01-31T11:28:21.769Z,27.95
2019-01-31T11:34:59.608Z,26.00
2019-01-31T11:41:46.052Z,27.90
2019-01-31T11:48:24.731Z,27.55
2019-01-31T11:55:06.002Z,24.90
2019-01-31T12:01:09.099Z,21.97
2019-01-31T12:07:12.446Z,22.50
2019-01-31T12:13:23.270Z,16.95
2019-01-31T12:19:18.865Z,21.77
2019-01-31T12:25:21.523Z,24.30
2019-01-31T12:31:24.504Z,26.60
2019-01-31T12:37:26.724Z,25.75
2019-01-31T12:43:35.098Z,26.80
2019-01-31T12:49:35.012Z,25.17
2019-01-31T12:55:38.330Z,27.07
2019-01-31T13:01:40.460Z,26.75
2019-01-31T13:07:43.315Z,27.95
2019-01-31T13:13:46.422Z,28.77
2019-01-31T13:19:49.007Z,27.70
2019-01-31T13:25:51.348Z,28.65
2019-01-31T13:31:53.667Z,28.20
2019-01-31T13:37:55.779Z,26.02
2019-01-31T13:43:59.254Z,30.55
2019-01-31T13:50:01.761Z,32.35
2019-01-31T13:56:05.995Z,30.65
2019-01-31T14:02:09.367Z,32.98
2019-01-31T14:08:11.798Z,35.52
2019-01-31T14:14:14.012Z,31.85
2019-01-31T14:20:18.975Z,33.85
2019-01-31T14:26:21.181Z,31.57
2019-01-31T14:32:23.616Z,35.88
2019-01-31T14:38:25.871Z,38.08
2019-01-31T14:44:29.692Z,39.92
2019-01-31T14:50:45.917Z,38.20
2019-01-31T14:56:49.806Z,42.05
2019-01-31T15:02:51.996Z,44.10
2019-01-31T15:08:54.297Z,44.83
2019-01-31T15:14:56.791Z,45.92
2019-01-31T15:20:59.213Z,44.25
2019-01-31T15:27:01.472Z,48.15
2019-01-31T15:33:09.025Z,48.85
2019-01-31T15:39:11.339Z,47.88
2019-01-31T15:45:15.782Z,52.50
2019-01-31T15:51:18.031Z,52.65
2019-01-31T15:57:20.136Z,54.10
2019-01-31T16:03:23.614Z,58.92
2019-01-31T16:09:25.891Z,63.70
2019-01-31T16:15:28.279Z,65.37
2019-01-31T16:21:30.498Z,67.03
2019-01-31T16:27:32.678Z,68.97
2019-01-31T16:33:34.782Z,68.30
2019-01-31T16:39:36.978Z,66.67
2019-01-31T16:45:41.579Z,74.95
2019-01-31T16:51:45.568Z,74.67
2019-01-31T16:57:47.824Z,77.22
2019-01-31T17:03:50.116Z,70.05
2019-01-31T17:09:56.679Z,68.70
2019-01-31T17:16:00.010Z,77.42
2019-01-31T17:22:02.380Z,70.75
2019-01-31T17:28:04.706Z,67.62
2019-01-31T17:34:09.503Z,77.30
2019-01-31T17:40:18.093Z,72.82
2019-01-31T17:46:26.623Z,71.85
2019-01-31T17:52:29.218Z,70.75
2019-01-31T17:58:31.965Z,99.05
2019-01-31T18:04:34.483Z,117.93
2019-01-31T18:10:39.003Z,97.33
2019-01-31T18:16:41.635Z,122.75
2019-01-31T18:22:43.883Z,121.80
2019-01-31T18:28:46.121Z,144.90
2019-01-31T18:34:48.450Z,123.05
2019-01-31T18:40:50.818Z,123.85
2019-01-31T18:46:54.169Z,95.35
2019-01-31T18:52:56.471Z,82.22
2019-01-31T18:58:58.754Z,78.70
2019-01-31T19:05:01.047Z,74.75
2019-01-31T19:11:03.575Z,78.00
2019-01-31T19:17:05.899Z,76.17
2019-01-31T19:23:10.590Z,81.02
2019-01-31T19:29:13.968Z,79.30
2019-01-31T19:35:17.410Z,74.50
2019-01-31T19:41:19.739Z,73.62
2019-01-31T19:47:23.214Z,79.05
2019-01-31T19:53:28.032Z,75.80
2019-01-31T19:59:30.811Z,77.35
2019-01-31T20:05:34.763Z,78.40
2019-01-31T20:11:36.938Z,77.15
2019-01-31T20:17:58.483Z,70.55
2019-01-31T20:24:22.320Z,76.28
2019-01-31T20:30:26.157Z,92.55
2019-01-31T20:36:28.979Z,86.75
2019-01-31T20:42:32.807Z,143.65
2019-01-31T20:48:36.584Z,137.68
2019-01-31T20:54:39.639Z,152.90
2019-01-31T21:00:43.608Z,111.22
2019-01-31T21:06:47.054Z,113.15
2019-01-31T21:12:49.217Z,95.35
2019-01-31T21:18:51.607Z,76.37
2019-01-31T21:24:53.747Z,92.92
2019-01-31T21:30:55.942Z,83.67
2019-01-31T21:36:58.288Z,75.65
2019-01-31T21:43:00.878Z,79.22
2019-01-31T21:49:04.238Z,74.42
2019-01-31T21:55:06.777Z,71.12
2019-01-31T22:01:10.502Z,72.35
2019-01-31T22:07:13.784Z,63.80
2019-01-31T22:13:16.155Z,69.82
2019-01-31T22:19:18.463Z,63.38
2019-01-31T22:25:21.074Z,58.05
2019-01-31T22:31:24.390Z,57.08
2019-01-31T22:37:27.690Z,56.60
2019-01-31T22:43:29.818Z,54.08
2019-01-31T22:49:32.501Z,53.10
2019-01-31T22:55:34.735Z,49.63
2019-01-31T23:01:38.254Z,48.52
2019-01-31T23:07:40.831Z,47.43
2019-01-31T23:13:43.187Z,45.48
2019-01-31T23:19:45.478Z,44.18
2019-01-31T23:25:47.859Z,40.83
2019-01-31T23:31:50.210Z,37.00
2019-01-31T23:37:52.638Z,40.63
2019-01-31T23:43:54.931Z,39.13
2019-01-31T23:49:57.772Z,34.73
2019-01-31T23:56:00.258Z,29.52
